Time,TemperatureF,DewpointF,PressureIn,WindDirection,WindDirectionDegrees,WindSpeedMPH,WindSpeedGustMPH,Humidity,HourlyPrecipIn,Conditions,Clouds,dailyrainin,SoftwareType,DateUTC
2013-02-21 00:11:00,49.0,-99.9,-100.00,NE,48,5.0,-999.0,82,0.00,,,-99.99,,2013-02-21 06:11:00,
2013-02-21 00:21:00,49.0,-99.9,-100.00,NE,48,5.0,-999.0,82,0.00,,,-99.99,,2013-02-21 06:21:00,
2013-02-21 00:31:00,49.0,-99.9,-100.00,NE,48,5.0,-999.0,82,0.00,,,-99.99,,2013-02-21 06:31:00,
2013-02-21 00:42:00,49.0,-99.9,-100.00,NE,48,5.0,-999.0,82,0.00,,,-99.99,,2013-02-21 06:42:00,
2013-02-21 01:11:00,48.0,-99.9,-100.00,ENE,71,5.0,-999.0,87,0.00,,,-99.99,,2013-02-21 07:11:00,
2013-02-21 01:22:00,48.0,-99.9,-100.00,ENE,71,5.0,-999.0,87,0.00,,,-99.99,,2013-02-21 07:22:00,
2013-02-21 01:32:00,48.0,-99.9,-100.00,ENE,71,5.0,-999.0,87,0.00,,,-99.99,,2013-02-21 07:32:00,
2013-02-21 01:42:00,48.0,-99.9,-100.00,ENE,71,5.0,-999.0,87,0.00,,,-99.99,,2013-02-21 07:42:00,
2013-02-21 02:11:00,50.0,-99.9,-100.00,ENE,78,6.0,-999.0,86,0.00,,,-99.99,,2013-02-21 08:11:00,
2013-02-21 02:22:00,50.0,-99.9,-100.00,ENE,78,6.0,-999.0,86,0.00,,,-99.99,,2013-02-21 08:22:00,
2013-02-21 02:32:00,50.0,-99.9,-100.00,ENE,78,6.0,-999.0,86,0.00,,,-99.99,,2013-02-21 08:32:00,
2013-02-21 02:42:00,50.0,-99.9,-100.00,ENE,78,6.0,-999.0,86,0.00,,,-99.99,,2013-02-21 08:42:00,
2013-02-21 03:11:00,49.0,-99.9,-100.00,ENE,68,8.0,-999.0,78,0.00,,,-99.99,,2013-02-21 09:11:00,
2013-02-21 03:22:00,49.0,-99.9,-100.00,ENE,68,8.0,-999.0,78,0.00,,,-99.99,,2013-02-21 09:22:00,
2013-02-21 03:32:00,49.0,-99.9,-100.00,ENE,68,8.0,-999.0,78,0.00,,,-99.99,,2013-02-21 09:32:00,
2013-02-21 03:42:00,49.0,-99.9,-100.00,ENE,68,8.0,-999.0,78,0.00,,,-99.99,,2013-02-21 09:42:00,
2013-02-21 04:11:00,50.0,-99.9,-100.00,ENE,77,11.0,-999.0,73,0.00,,,-99.99,,2013-02-21 10:11:00,
2013-02-21 04:21:00,50.0,-99.9,-100.00,ENE,77,11.0,-999.0,73,0.00,,,-99.99,,2013-02-21 10:21:00,
2013-02-21 04:31:00,50.0,-99.9,-100.00,ENE,77,11.0,-999.0,73,0.00,,,-99.99,,2013-02-21 10:31:00,
2013-02-21 04:41:00,50.0,-99.9,-100.00,ENE,77,11.0,-999.0,73,0.00,,,-99.99,,2013-02-21 10:41:00,
2013-02-21 05:21:00,50.0,-99.9,-100.00,ENE,65,9.0,-999.0,74,0.00,,,-99.99,,2013-02-21 11:21:00,
2013-02-21 05:31:00,50.0,-99.9,-100.00,ENE,65,9.0,-999.0,74,0.00,,,-99.99,,2013-02-21 11:31:00,
2013-02-21 05:42:00,50.0,-99.9,-100.00,ENE,65,9.0,-999.0,74,0.00,,,-99.99,,2013-02-21 11:42:00,
2013-02-21 06:11:00,50.0,-99.9,-100.00,ENE,67,10.0,-999.0,74,0.00,,,-99.99,,2013-02-21 12:11:00,
2013-02-21 06:22:00,50.0,-99.9,-100.00,ENE,67,10.0,-999.0,74,0.00,,,-99.99,,2013-02-21 12:22:00,
2013-02-21 06:32:00,50.0,-99.9,-100.00,ENE,67,10.0,-999.0,74,0.00,,,-99.99,,2013-02-21 12:32:00,
2013-02-21 06:43:00,50.0,-99.9,-100.00,ENE,67,10.0,-999.0,74,0.00,,,-99.99,,2013-02-21 12:43:00,
2013-02-21 07:12:00,50.0,-99.9,-100.00,ENE,77,12.0,-999.0,76,0.00,,,-99.99,,2013-02-21 13:12:00,
2013-02-21 07:22:00,50.0,-99.9,-100.00,ENE,77,12.0,-999.0,76,0.00,,,-99.99,,2013-02-21 13:22:00,
2013-02-21 07:32:00,50.0,-99.9,-100.00,ENE,77,12.0,-999.0,76,0.00,,,-99.99,,2013-02-21 13:32:00,
2013-02-21 07:42:00,50.0,-99.9,-100.00,ENE,77,12.0,-999.0,76,0.00,,,-99.99,,2013-02-21 13:42:00,
2013-02-21 08:11:00,52.0,-99.9,-100.00,ENE,76,11.0,-999.0,77,0.00,,,-99.99,,2013-02-21 14:11:00,
2013-02-21 08:22:00,52.0,-99.9,-100.00,ENE,76,11.0,-999.0,77,0.00,,,-99.99,,2013-02-21 14:22:00,
2013-02-21 08:32:00,52.0,-99.9,-100.00,ENE,76,11.0,-999.0,77,0.00,,,-99.99,,2013-02-21 14:32:00,
2013-02-21 08:42:00,52.0,-99.9,-100.00,ENE,76,11.0,-999.0,77,0.00,,,-99.99,,2013-02-21 14:42:00,
2013-02-21 09:12:00,54.0,-99.9,-100.00,ENE,74,12.0,-999.0,76,0.00,,,-99.99,,2013-02-21 15:12:00,
2013-02-21 09:22:00,54.0,-99.9,-100.00,ENE,74,12.0,-999.0,76,0.00,,,-99.99,,2013-02-21 15:22:00,
2013-02-21 09:32:00,54.0,-99.9,-100.00,ENE,74,12.0,-999.0,76,0.00,,,-99.99,,2013-02-21 15:32:00,
2013-02-21 09:42:00,54.0,-99.9,-100.00,ENE,74,12.0,-999.0,76,0.00,,,-99.99,,2013-02-21 15:42:00,
2013-02-21 10:12:00,56.0,-99.9,-100.00,East,88,13.0,-999.0,79,0.00,,,-99.99,,2013-02-21 16:12:00,
2013-02-21 10:22:00,56.0,-99.9,-100.00,East,88,13.0,-999.0,79,0.00,,,-99.99,,2013-02-21 16:22:00,
2013-02-21 10:32:00,56.0,-99.9,-100.00,East,88,13.0,-999.0,79,0.00,,,-99.99,,2013-02-21 16:32:00,
2013-02-21 10:42:00,56.0,-99.9,-100.00,East,88,13.0,-999.0,79,0.00,,,-99.99,,2013-02-21 16:42:00,
2013-02-21 11:12:00,56.0,-99.9,-100.00,East,95,15.0,-999.0,82,0.00,,,-99.99,,2013-02-21 17:12:00,
2013-02-21 11:22:00,56.0,-99.9,-100.00,East,95,15.0,-999.0,82,0.00,,,-99.99,,2013-02-21 17:22:00,
2013-02-21 11:32:00,56.0,-99.9,-100.00,East,95,15.0,-999.0,82,0.00,,,-99.99,,2013-02-21 17:32:00,
2013-02-21 11:42:00,56.0,-99.9,-100.00,East,95,15.0,-999.0,82,0.00,,,-99.99,,2013-02-21 17:42:00,
2013-02-21 12:12:00,59.0,-99.9,-100.00,East,100,15.0,-999.0,86,-99.99,,,-99.99,,2013-02-21 18:12:00,
2013-02-21 12:22:00,59.0,-99.9,-100.00,East,100,15.0,-999.0,86,0.00,,,-99.99,,2013-02-21 18:22:00,
2013-02-21 12:32:00,59.0,-99.9,-100.00,East,100,15.0,-999.0,86,0.00,,,-99.99,,2013-02-21 18:32:00,
2013-02-21 12:42:00,59.0,-99.9,-100.00,East,100,15.0,-999.0,86,0.00,,,-99.99,,2013-02-21 18:42:00,
2013-02-21 13:12:00,60.0,-99.9,-100.00,ESE,105,13.0,-999.0,94,0.00,,,-99.99,,2013-02-21 19:12:00,
2013-02-21 13:22:00,60.0,-99.9,-100.00,ESE,105,13.0,-999.0,94,0.00,,,-99.99,,2013-02-21 19:22:00,
2013-02-21 13:32:00,60.0,-99.9,-100.00,ESE,105,13.0,-999.0,94,0.00,,,-99.99,,2013-02-21 19:32:00,
2013-02-21 13:42:00,60.0,-99.9,-100.00,ESE,105,13.0,-999.0,94,0.00,,,-99.99,,2013-02-21 19:42:00,
2013-02-21 14:22:00,60.0,-99.9,-100.00,ESE,106,14.0,-999.0,101,0.00,,,-99.99,,2013-02-21 20:22:00,
2013-02-21 14:32:00,60.0,-99.9,-100.00,ESE,106,14.0,-999.0,101,0.00,,,-99.99,,2013-02-21 20:32:00,
2013-02-21 14:42:00,60.0,-99.9,-100.00,ESE,106,14.0,-999.0,101,0.00,,,-99.99,,2013-02-21 20:42:00,
2013-02-21 15:12:00,60.0,-99.9,-100.00,ESE,120,14.0,-999.0,109,0.00,,,-99.99,,2013-02-21 21:12:00,
2013-02-21 15:22:00,60.0,-99.9,-100.00,ESE,120,14.0,-999.0,109,0.00,,,-99.99,,2013-02-21 21:22:00,
2013-02-21 15:32:00,60.0,-99.9,-100.00,ESE,120,14.0,-999.0,109,0.00,,,-99.99,,2013-02-21 21:32:00,
2013-02-21 15:42:00,60.0,-99.9,-100.00,ESE,120,14.0,-999.0,109,0.00,,,-99.99,,2013-02-21 21:42:00,
2013-02-21 16:11:00,61.0,-99.9,-100.00,ESE,115,11.0,-999.0,112,0.00,,,-99.99,,2013-02-21 22:11:00,
2013-02-21 16:22:00,61.0,-99.9,-100.00,ESE,115,11.0,-999.0,112,0.00,,,-99.99,,2013-02-21 22:22:00,
2013-02-21 16:32:00,61.0,-99.9,-100.00,ESE,115,11.0,-999.0,112,0.00,,,-99.99,,2013-02-21 22:32:00,
2013-02-21 16:42:00,61.0,-99.9,-100.00,ESE,115,11.0,-999.0,112,0.00,,,-99.99,,2013-02-21 22:42:00,
2013-02-21 17:11:00,61.0,-99.9,-100.00,SE,125,12.0,-999.0,114,0.00,,,-99.99,,2013-02-21 23:11:00,
2013-02-21 17:22:00,61.0,-99.9,-100.00,SE,125,12.0,-999.0,114,0.00,,,-99.99,,2013-02-21 23:22:00,
2013-02-21 17:32:00,61.0,-99.9,-100.00,SE,125,12.0,-999.0,114,0.00,,,-99.99,,2013-02-21 23:32:00,
2013-02-21 17:42:00,61.0,-99.9,-100.00,SE,125,12.0,-999.0,114,0.00,,,-99.99,,2013-02-21 23:42:00,
2013-02-21 18:22:00,61.0,-99.9,-100.00,SE,126,13.0,-999.0,114,0.00,,,-99.99,,2013-02-22 00:22:00,
2013-02-21 18:32:00,61.0,-99.9,-100.00,SE,126,13.0,-999.0,114,0.00,,,-99.99,,2013-02-22 00:32:00,
2013-02-21 18:42:00,61.0,-99.9,-100.00,SE,126,13.0,-999.0,114,0.00,,,-99.99,,2013-02-22 00:42:00,
2013-02-21 19:11:00,61.0,-99.9,-100.00,ESE,106,10.0,-999.0,114,0.00,,,-99.99,,2013-02-22 01:11:00,
2013-02-21 19:22:00,61.0,-99.9,-100.00,ESE,106,10.0,-999.0,114,0.00,,,-99.99,,2013-02-22 01:22:00,
2013-02-21 19:32:00,61.0,-99.9,-100.00,ESE,106,10.0,-999.0,114,0.00,,,-99.99,,2013-02-22 01:32:00,
2013-02-21 19:42:00,61.0,-99.9,-100.00,ESE,106,10.0,-999.0,114,0.00,,,-99.99,,2013-02-22 01:42:00,
2013-02-21 20:11:00,61.0,-99.9,-100.00,SE,136,11.0,-999.0,118,0.00,,,-99.99,,2013-02-22 02:11:00,
2013-02-21 20:22:00,61.0,-99.9,-100.00,SE,136,11.0,-999.0,118,0.00,,,-99.99,,2013-02-22 02:22:00,
2013-02-21 20:32:00,61.0,-99.9,-100.00,SE,136,11.0,-999.0,118,0.00,,,-99.99,,2013-02-22 02:32:00,
2013-02-21 20:42:00,61.0,-99.9,-100.00,SE,136,11.0,-999.0,118,0.00,,,-99.99,,2013-02-22 02:42:00,
2013-02-21 21:11:00,61.0,-99.9,-100.00,SE,138,12.0,-999.0,120,0.00,,,-99.99,,2013-02-22 03:11:00,
2013-02-21 21:22:00,61.0,-99.9,-100.00,SE,138,12.0,-999.0,120,0.00,,,-99.99,,2013-02-22 03:22:00,
2013-02-21 21:32:00,61.0,-99.9,-100.00,SE,138,12.0,-999.0,120,0.00,,,-99.99,,2013-02-22 03:32:00,
2013-02-21 21:42:00,61.0,-99.9,-100.00,SE,138,12.0,-999.0,120,0.00,,,-99.99,,2013-02-22 03:42:00,
2013-02-21 22:22:00,61.0,-99.9,-100.00,SE,144,10.0,-999.0,121,0.00,,,-99.99,,2013-02-22 04:22:00,
2013-02-21 22:32:00,61.0,-99.9,-100.00,SE,144,10.0,-999.0,121,0.00,,,-99.99,,2013-02-22 04:32:00,
2013-02-21 22:42:00,61.0,-99.9,-100.00,SE,144,10.0,-999.0,121,0.00,,,-99.99,,2013-02-22 04:42:00,
2013-02-21 23:22:00,61.0,-99.9,-100.00,SE,127,7.0,-999.0,122,0.00,,,-99.99,,2013-02-22 05:22:00,
2013-02-21 23:32:00,61.0,-99.9,-100.00,SE,127,7.0,-999.0,122,0.00,,,-99.99,,2013-02-22 05:32:00,
2013-02-21 23:42:00,61.0,-99.9,-100.00,SE,127,7.0,-999.0,122,0.00,,,-99.99,,2013-02-22 05:42:00,